X  Zatvori METAR podaci zračne luke     EDDK Cologne Bonn Airport
Temperatura
19°C Temperatura
13°C Točka rosišta
68% Vlaga



Vjetar
6 M/S
13 MPS
21 KM/S
11 Čvorovi



230°
JZ
Trenutna situacija

Vedro Vedro
Tlak zraka 1019.98 (hPa) - 30.12 (inHg)
Vidljivost 6 (milje) - 9.7 (km)
Zračna luka
Kôd zračne luke EDDK

Lokacija: Cologne Bonn Airport
Udaljenost: 56 (km)

Metar:
EDDK 132250Z AUTO 23011KT CAVOK 19/13 Q1020 NOSIG

Vrijeme: 2024-04-14 00:50 CEST